createdAt,value
2023-04-18T00:25:17.813Z,90.70
2023-04-18T00:30:21.159Z,90.50
2023-04-18T00:35:26.159Z,90.60
2023-04-18T00:40:30.508Z,90.90
2023-04-18T00:45:33.088Z,90.70
2023-04-18T00:50:37.521Z,91.10
2023-04-18T00:55:41.793Z,91.10
2023-04-18T01:00:44.586Z,91.10
2023-04-18T01:05:48.318Z,91.00
2023-04-18T01:10:52.411Z,90.80
2023-04-18T01:15:55.034Z,90.70
2023-04-18T01:20:57.713Z,90.90
2023-04-18T01:26:01.512Z,91.30
2023-04-18T01:31:04.140Z,91.10
2023-04-18T01:36:07.141Z,91.30
2023-04-18T01:41:10.910Z,91.60
2023-04-18T01:46:13.418Z,91.50
2023-04-18T01:51:16.032Z,91.60
2023-04-18T01:56:22.801Z,91.60
2023-04-18T02:01:25.740Z,91.30
2023-04-18T02:06:31.146Z,91.20
2023-04-18T02:11:36.864Z,91.10
2023-04-18T02:16:39.506Z,91.20
2023-04-18T02:21:45.067Z,91.60
2023-04-18T02:26:48.931Z,91.80
2023-04-18T02:31:54.127Z,92.20
2023-04-18T02:36:59.323Z,92.30
2023-04-18T02:42:03.301Z,92.00
2023-04-18T02:47:08.430Z,91.90
2023-04-18T02:52:14.862Z,91.80
2023-04-18T02:57:18.760Z,91.90
2023-04-18T03:02:44.714Z,92.00
2023-04-18T03:08:00.166Z,92.10
2023-04-18T03:13:05.121Z,92.10
2023-04-18T03:18:08.638Z,92.10
2023-04-18T03:23:14.700Z,92.10
2023-04-18T03:28:18.740Z,92.20
2023-04-18T03:33:21.320Z,92.10
2023-04-18T03:38:28.002Z,92.20
2023-04-18T03:43:31.910Z,92.20
2023-04-18T03:48:34.433Z,92.40
2023-04-18T03:53:40.628Z,92.10
2023-04-18T03:58:44.678Z,92.10
2023-04-18T04:03:47.787Z,92.40
2023-04-18T04:08:50.641Z,92.70
2023-04-18T04:13:58.880Z,92.60
2023-04-18T04:19:07.470Z,93.00
2023-04-18T04:24:16.798Z,92.80
2023-04-18T04:29:23.878Z,92.50
2023-04-18T04:34:27.334Z,92.40
2023-04-18T04:39:32.948Z,92.40
2023-04-18T04:44:57.014Z,92.30
2023-04-18T04:50:00.119Z,92.40
2023-04-18T04:55:02.761Z,92.60
2023-04-18T05:00:09.533Z,92.30
2023-04-18T05:05:12.290Z,91.80
2023-04-18T05:10:14.857Z,92.10
2023-04-18T05:15:20.678Z,92.70
2023-04-18T05:20:23.619Z,92.60
2023-04-18T05:25:26.166Z,92.30
2023-04-18T05:30:30.056Z,92.00
2023-04-18T05:35:32.676Z,92.00
2023-04-18T05:40:35.145Z,91.70
2023-04-18T05:45:39.201Z,91.70
2023-04-18T05:50:42.847Z,91.40
2023-04-18T05:55:48.707Z,91.70
2023-04-18T06:00:53.364Z,91.60
2023-04-18T06:05:56.130Z,91.40
2023-04-18T06:10:58.988Z,91.10
2023-04-18T06:16:03.612Z,91.30
2023-04-18T06:21:06.466Z,91.30
2023-04-18T06:26:09.301Z,91.00
2023-04-18T06:31:13.217Z,90.50
2023-04-18T06:36:16.105Z,90.10
2023-04-18T06:41:19.904Z,90.20
2023-04-18T06:46:24.116Z,90.20
2023-04-18T06:51:30.998Z,90.60
2023-04-18T06:56:36.532Z,90.10
2023-04-18T07:01:41.816Z,89.20
2023-04-18T07:06:45.543Z,89.10
2023-04-18T07:11:48.348Z,89.60
2023-04-18T07:16:52.644Z,89.30
2023-04-18T07:21:55.628Z,89.10
2023-04-18T07:26:58.215Z,88.70
2023-04-18T07:32:03.044Z,89.60
2023-04-18T07:37:08.375Z,88.60
2023-04-18T07:42:12.770Z,87.50
2023-04-18T07:47:17.186Z,87.50
2023-04-18T07:52:20.125Z,86.80
2023-04-18T07:57:22.705Z,86.70
2023-04-18T08:02:29.062Z,86.40
2023-04-18T08:07:32.405Z,85.00
2023-04-18T08:12:34.961Z,83.50
2023-04-18T08:17:39.387Z,82.40
2023-04-18T08:22:57.674Z,80.10
2023-04-18T08:28:06.058Z,79.90
2023-04-18T08:33:10.234Z,80.10
2023-04-18T08:38:19.754Z,79.10
2023-04-18T08:43:22.922Z,79.00
2023-04-18T08:48:27.656Z,78.90
2023-04-18T08:53:34.197Z,79.10
2023-04-18T08:58:37.782Z,78.20
2023-04-18T09:03:43.037Z,77.60
2023-04-18T09:08:57.986Z,78.20
2023-04-18T09:14:01.032Z,78.50
2023-04-18T09:19:14.612Z,76.20
2023-04-18T09:24:22.836Z,75.80
2023-04-18T09:29:47.499Z,76.50
2023-04-18T09:34:56.703Z,80.90
2023-04-18T09:39:59.677Z,80.80
2023-04-18T09:45:07.820Z,80.70
2023-04-18T09:50:14.900Z,81.50
2023-04-18T09:55:19.474Z,81.30
2023-04-18T10:00:26.364Z,80.20
2023-04-18T10:05:39.846Z,79.60
2023-04-18T10:10:45.023Z,80.20
2023-04-18T10:15:47.997Z,80.50
2023-04-18T10:21:02.220Z,81.20
2023-04-18T10:26:06.660Z,81.00
2023-04-18T10:31:09.348Z,80.50
2023-04-18T10:36:18.819Z,80.80
2023-04-18T10:41:27.346Z,81.10
2023-04-18T10:46:32.851Z,79.90
2023-04-18T10:51:37.046Z,79.80
2023-04-18T10:56:39.752Z,79.00
2023-04-18T11:01:49.144Z,78.90
2023-04-18T11:06:55.358Z,78.20
2023-04-18T11:12:07.077Z,78.10
2023-04-18T11:17:21.010Z,78.40
2023-04-18T11:22:25.201Z,79.00
2023-04-18T11:27:48.646Z,78.60
2023-04-18T11:32:52.472Z,77.20
2023-04-18T11:38:01.210Z,77.70
2023-04-18T11:43:06.566Z,77.90
2023-04-18T11:48:10.016Z,78.70
2023-04-18T11:53:14.662Z,78.20
2023-04-18T11:58:17.411Z,78.10
2023-04-18T12:03:22.264Z,77.60
2023-04-18T12:08:27.485Z,76.40
2023-04-18T12:13:33.022Z,77.60
2023-04-18T12:18:38.332Z,77.30
2023-04-18T12:23:44.810Z,78.20
2023-04-18T12:28:51.422Z,77.60
2023-04-18T12:33:54.066Z,78.00
2023-04-18T12:38:59.079Z,77.10
2023-04-18T12:44:06.229Z,77.60
2023-04-18T12:49:09.131Z,78.60
2023-04-18T12:54:17.235Z,78.10
2023-04-18T12:59:20.754Z,76.90
2023-04-18T13:04:23.871Z,77.70
2023-04-18T13:09:30.854Z,78.00
2023-04-18T13:14:33.390Z,76.60
2023-04-18T13:19:35.897Z,76.30
2023-04-18T13:24:39.866Z,76.80
2023-04-18T13:29:46.111Z,76.50
2023-04-18T13:34:49.170Z,76.30
2023-04-18T13:39:53.142Z,77.70
2023-04-18T13:45:00.812Z,76.60
2023-04-18T13:50:03.408Z,76.90
2023-04-18T13:55:09.170Z,75.90
2023-04-18T14:00:13.180Z,77.80
2023-04-18T14:05:15.771Z,79.70
2023-04-18T14:10:19.608Z,80.20
2023-04-18T14:15:24.476Z,80.70
2023-04-18T14:20:27.382Z,80.30
2023-04-18T14:25:31.359Z,80.20
2023-04-18T14:30:34.033Z,80.60
2023-04-18T14:35:36.687Z,81.30
2023-04-18T14:40:40.778Z,81.70
2023-04-18T14:45:43.295Z,81.30
2023-04-18T14:50:45.862Z,81.50
2023-04-18T14:55:50.046Z,81.50
2023-04-18T15:00:52.621Z,81.10
2023-04-18T15:05:56.005Z,81.20
2023-04-18T15:10:59.742Z,81.90
2023-04-18T15:16:02.259Z,83.00
2023-04-18T15:21:04.783Z,83.10
2023-04-18T15:26:14.743Z,83.00
2023-04-18T15:31:17.230Z,81.80
2023-04-18T15:36:19.683Z,82.30
2023-04-18T15:41:23.626Z,82.30
2023-04-18T15:46:26.133Z,83.40
2023-04-18T15:51:28.809Z,83.60
2023-04-18T15:56:33.614Z,83.10
2023-04-18T16:01:36.433Z,83.50
2023-04-18T16:06:38.860Z,84.30
2023-04-18T16:11:42.685Z,84.70
2023-04-18T16:16:48.195Z,84.90
2023-04-18T16:21:50.692Z,84.40
2023-04-18T16:26:57.675Z,84.60
2023-04-18T16:32:00.072Z,84.10
2023-04-18T16:37:02.609Z,84.70
2023-04-18T16:42:06.645Z,85.80
2023-04-18T16:47:09.111Z,85.50
2023-04-18T16:52:14.547Z,85.10
2023-04-18T16:57:18.544Z,86.40
2023-04-18T17:02:21.144Z,86.50
2023-04-18T17:07:23.649Z,85.70
2023-04-18T17:12:27.554Z,85.20
2023-04-18T17:17:32.823Z,85.90
2023-04-18T17:22:35.465Z,87.70
2023-04-18T17:27:40.060Z,88.30
2023-04-18T17:32:42.545Z,88.30
2023-04-18T17:37:46.352Z,89.20
2023-04-18T17:42:53.151Z,89.40
2023-04-18T17:47:57.710Z,89.50
2023-04-18T17:53:00.132Z,88.90
2023-04-18T17:58:03.918Z,88.80
2023-04-18T18:03:06.514Z,87.80
2023-04-18T18:08:09.053Z,84.90
2023-04-18T18:13:13.008Z,82.60
2023-04-18T18:18:15.422Z,81.40
2023-04-18T18:23:17.952Z,79.20
2023-04-18T18:28:22.048Z,78.00
2023-04-18T18:33:24.585Z,76.90
2023-04-18T18:38:27.143Z,76.70
2023-04-18T18:43:30.937Z,77.50
2023-04-18T18:48:33.340Z,77.60
2023-04-18T18:53:36.815Z,78.30
2023-04-18T18:58:42.158Z,78.40
2023-04-18T19:03:44.587Z,79.60
2023-04-18T19:08:47.165Z,80.90
2023-04-18T19:13:52.935Z,81.60
2023-04-18T19:18:55.357Z,81.60
2023-04-18T19:24:00.820Z,82.30
2023-04-18T19:29:06.344Z,82.70
2023-04-18T19:34:08.782Z,83.00
2023-04-18T19:39:11.166Z,83.20
2023-04-18T19:44:15.047Z,85.10
2023-04-18T19:49:17.624Z,85.20
2023-04-18T19:54:21.710Z,85.30
2023-04-18T19:59:25.820Z,85.80
2023-04-18T20:04:31.000Z,86.00
2023-04-18T20:09:35.078Z,86.40
2023-04-18T20:14:41.685Z,86.60
2023-04-18T20:19:49.823Z,86.60
2023-04-18T20:24:52.536Z,86.10
2023-04-18T20:29:57.337Z,86.10
2023-04-18T20:35:00.105Z,86.30
2023-04-18T20:40:02.611Z,86.20
2023-04-18T20:45:08.164Z,86.50
2023-04-18T20:50:11.249Z,85.60
2023-04-18T20:55:15.206Z,85.10
2023-04-18T21:00:22.939Z,84.60
2023-04-18T21:05:25.364Z,84.30
2023-04-18T21:10:27.747Z,83.80
2023-04-18T21:15:31.580Z,83.10
2023-04-18T21:20:34.017Z,83.00
2023-04-18T21:25:40.886Z,82.60
2023-04-18T21:30:44.777Z,82.70
2023-04-18T21:35:47.267Z,82.50
2023-04-18T21:40:49.811Z,81.60
2023-04-18T21:45:53.692Z,82.80
2023-04-18T21:50:56.364Z,83.00
2023-04-18T21:55:58.843Z,82.30
2023-04-18T22:01:06.072Z,82.60
2023-04-18T22:06:11.610Z,82.80
2023-04-18T22:11:14.159Z,82.80
2023-04-18T22:16:18.115Z,82.60
2023-04-18T22:21:20.675Z,82.20
2023-04-18T22:26:23.178Z,82.10
2023-04-18T22:31:27.119Z,82.60
2023-04-18T22:36:29.598Z,82.60
2023-04-18T22:41:31.982Z,82.40
2023-04-18T22:46:39.013Z,82.90
2023-04-18T22:51:41.479Z,84.90
2023-04-18T22:56:43.979Z,85.30
2023-04-18T23:01:47.839Z,86.20
2023-04-18T23:06:53.192Z,86.30
2023-04-18T23:11:55.616Z,87.10
2023-04-18T23:16:59.360Z,87.60
2023-04-18T23:22:01.782Z,88.00
2023-04-18T23:27:04.488Z,86.90
2023-04-18T23:32:08.362Z,86.00
2023-04-18T23:37:10.751Z,85.80
2023-04-18T23:42:13.140Z,86.80
2023-04-18T23:47:17.152Z,87.20
2023-04-18T23:52:19.693Z,87.30
2023-04-18T23:57:22.118Z,86.90
